createdAt,value
2023-05-03T00:00:18.479Z,19.27
2023-05-03T00:01:18.439Z,19.26
2023-05-03T00:02:18.463Z,19.29
2023-05-03T00:03:18.496Z,19.27
2023-05-03T00:04:18.484Z,19.29
2023-05-03T00:05:18.427Z,19.27
2023-05-03T00:06:18.433Z,19.27
2023-05-03T00:07:18.385Z,19.27
2023-05-03T00:08:18.372Z,19.27
2023-05-03T00:09:18.339Z,19.27
2023-05-03T00:10:18.359Z,19.27
2023-05-03T00:11:18.333Z,19.27
2023-05-03T00:12:18.336Z,19.27
2023-05-03T00:13:18.321Z,19.27
2023-05-03T00:14:18.301Z,19.26
2023-05-03T00:15:18.291Z,19.27
2023-05-03T00:16:18.302Z,19.26
2023-05-03T00:17:18.271Z,19.26
2023-05-03T00:18:18.263Z,19.27
2023-05-03T00:19:30.568Z,19.27
2023-05-03T00:20:19.248Z,19.27
2023-05-03T00:21:18.228Z,19.29
2023-05-03T00:22:18.226Z,19.27
2023-05-03T00:23:18.222Z,19.27
2023-05-03T00:24:18.206Z,19.27
2023-05-03T00:25:18.174Z,19.27
2023-05-03T00:26:18.173Z,19.27
2023-05-03T00:27:18.149Z,19.26
2023-05-03T00:28:18.146Z,19.27
2023-05-03T00:29:18.148Z,19.26
2023-05-03T00:30:18.129Z,19.27
2023-05-03T00:31:18.156Z,19.27
2023-05-03T00:32:18.124Z,19.26
2023-05-03T00:33:18.106Z,19.29
2023-05-03T00:34:18.109Z,19.27
2023-05-03T00:35:18.107Z,19.27
2023-05-03T00:36:18.073Z,19.27
2023-05-03T00:37:18.054Z,19.27
2023-05-03T00:38:18.039Z,19.27
2023-05-03T00:39:18.035Z,19.27
2023-05-03T00:40:18.026Z,19.29
2023-05-03T00:41:18.002Z,19.30
2023-05-03T00:42:17.991Z,19.29
2023-05-03T00:43:17.980Z,19.29
2023-05-03T00:44:17.961Z,19.30
2023-05-03T00:45:17.966Z,19.29
2023-05-03T00:46:18.121Z,19.31
2023-05-03T00:47:18.062Z,19.30
2023-05-03T00:48:17.945Z,19.33
2023-05-03T00:49:17.928Z,19.31
2023-05-03T00:50:17.897Z,19.31
2023-05-03T00:51:17.889Z,19.31
2023-05-03T00:52:17.893Z,19.33
2023-05-03T00:53:17.893Z,19.33
2023-05-03T00:54:17.871Z,19.33
2023-05-03T00:55:17.848Z,19.33
2023-05-03T00:56:17.844Z,19.33
2023-05-03T00:57:17.840Z,19.31
2023-05-03T00:58:17.854Z,19.31
2023-05-03T00:59:17.799Z,19.31
2023-05-03T01:00:17.830Z,19.31
2023-05-03T01:01:17.821Z,19.30
2023-05-03T01:02:17.807Z,19.30
2023-05-03T01:03:17.847Z,19.30
2023-05-03T01:04:17.749Z,19.30
2023-05-03T01:05:17.763Z,19.29
2023-05-03T01:06:17.752Z,19.29
2023-05-03T01:07:17.745Z,19.27
2023-05-03T01:08:17.691Z,19.27
2023-05-03T01:09:17.709Z,19.27
2023-05-03T01:10:17.689Z,19.29
2023-05-03T01:11:17.678Z,19.27
2023-05-03T01:12:17.671Z,19.26
2023-05-03T01:13:17.665Z,19.26
2023-05-03T01:14:17.655Z,19.27
2023-05-03T01:15:17.658Z,19.26
2023-05-03T01:16:17.646Z,19.26
2023-05-03T01:17:17.606Z,19.26
2023-05-03T01:18:17.585Z,19.26
2023-05-03T01:19:17.589Z,19.24
2023-05-03T01:20:17.748Z,19.26
2023-05-03T01:21:17.591Z,19.27
2023-05-03T01:22:17.540Z,19.24
2023-05-03T01:23:17.536Z,19.26
2023-05-03T01:24:17.534Z,19.26
2023-05-03T01:25:17.543Z,19.27
2023-05-03T01:26:17.501Z,19.26
2023-05-03T01:27:17.499Z,19.27
2023-05-03T01:28:17.492Z,19.27
2023-05-03T01:29:17.476Z,19.29
2023-05-03T01:30:17.454Z,19.26
2023-05-03T01:31:18.158Z,19.27
2023-05-03T01:32:17.455Z,19.27
2023-05-03T01:33:17.442Z,19.27
2023-05-03T01:34:17.460Z,19.27
2023-05-03T01:35:17.432Z,19.27
2023-05-03T01:36:17.409Z,19.27
2023-05-03T01:37:17.401Z,19.27
2023-05-03T01:38:17.396Z,19.27
2023-05-03T01:39:17.377Z,19.26
2023-05-03T01:40:17.379Z,19.27
2023-05-03T01:41:17.373Z,19.27
2023-05-03T01:42:17.341Z,19.27
2023-05-03T01:43:17.325Z,19.27
2023-05-03T01:44:17.311Z,19.29
2023-05-03T01:45:17.307Z,19.27
2023-05-03T01:46:17.337Z,19.27
2023-05-03T01:47:17.289Z,19.27
2023-05-03T01:48:17.267Z,19.27
2023-05-03T01:49:17.255Z,19.27
2023-05-03T01:50:17.262Z,19.26
2023-05-03T01:51:17.245Z,19.27
2023-05-03T01:52:17.222Z,19.29
2023-05-03T01:53:17.213Z,19.29
2023-05-03T01:54:17.220Z,19.27
2023-05-03T01:55:17.206Z,19.27
2023-05-03T01:56:17.195Z,19.27
2023-05-03T01:57:17.188Z,19.29
2023-05-03T01:58:17.152Z,19.29
2023-05-03T01:59:17.177Z,19.27
2023-05-03T02:00:17.159Z,19.29
2023-05-03T02:01:17.189Z,19.29
2023-05-03T02:02:17.111Z,19.27
2023-05-03T02:03:17.115Z,19.27
2023-05-03T02:04:17.161Z,19.27
2023-05-03T02:05:17.096Z,19.27
2023-05-03T02:06:17.117Z,19.29
2023-05-03T02:07:17.066Z,19.27
2023-05-03T02:08:17.071Z,19.27
2023-05-03T02:09:17.039Z,19.27
2023-05-03T02:10:17.040Z,19.27
2023-05-03T02:11:17.026Z,19.27
2023-05-03T02:12:17.037Z,19.29
2023-05-03T02:13:17.017Z,19.30
2023-05-03T02:14:16.989Z,19.30
2023-05-03T02:15:16.987Z,19.30
2023-05-03T02:16:17.010Z,19.30
2023-05-03T02:17:16.950Z,19.29
2023-05-03T02:18:16.944Z,19.30
2023-05-03T02:19:16.947Z,19.30
2023-05-03T02:20:16.934Z,19.29
2023-05-03T02:21:16.932Z,19.30
2023-05-03T02:22:16.923Z,19.30
2023-05-03T02:23:16.909Z,19.30
2023-05-03T02:24:16.877Z,19.31
2023-05-03T02:25:16.883Z,19.30
2023-05-03T02:26:16.861Z,19.31
2023-05-03T02:27:16.842Z,19.31
2023-05-03T02:28:16.857Z,19.31
2023-05-03T02:29:16.816Z,19.33
2023-05-03T02:30:16.816Z,19.31
2023-05-03T02:31:16.868Z,19.31
2023-05-03T02:32:16.796Z,19.34
2023-05-03T02:33:16.790Z,19.31
2023-05-03T02:34:16.777Z,19.31
2023-05-03T02:35:16.760Z,19.31
2023-05-03T02:36:16.746Z,19.31
2023-05-03T02:37:16.732Z,19.31
2023-05-03T02:38:16.740Z,19.30
2023-05-03T02:39:16.726Z,19.31
2023-05-03T02:40:16.690Z,19.31
2023-05-03T02:41:16.714Z,19.31
2023-05-03T02:42:16.677Z,19.31
2023-05-03T02:43:16.678Z,19.33
2023-05-03T02:44:16.675Z,19.31
2023-05-03T02:45:16.684Z,19.31
2023-05-03T02:46:16.693Z,19.33
2023-05-03T02:47:16.634Z,19.31
2023-05-03T02:48:16.618Z,19.31
2023-05-03T02:49:16.613Z,19.31
2023-05-03T02:50:16.573Z,19.31
2023-05-03T02:51:16.596Z,19.31
2023-05-03T02:52:16.609Z,19.31
2023-05-03T02:53:16.574Z,19.31
2023-05-03T02:54:16.549Z,19.31
2023-05-03T02:55:16.550Z,19.31
2023-05-03T02:56:16.529Z,19.31
2023-05-03T02:57:16.557Z,19.31
2023-05-03T02:58:16.533Z,19.33
2023-05-03T02:59:16.488Z,19.31
2023-05-03T03:00:16.511Z,19.31
2023-05-03T03:01:16.536Z,19.31
2023-05-03T03:02:16.467Z,19.31
2023-05-03T03:03:16.580Z,19.31
2023-05-03T03:04:16.451Z,19.31
2023-05-03T03:05:16.439Z,19.31
2023-05-03T03:06:16.437Z,19.31
2023-05-03T03:07:16.406Z,19.31
2023-05-03T03:08:16.383Z,19.33
2023-05-03T03:09:16.376Z,19.31
2023-05-03T03:10:16.355Z,19.31
2023-05-03T03:11:16.358Z,19.33
2023-05-03T03:12:16.352Z,19.33
2023-05-03T03:13:16.360Z,19.33
2023-05-03T03:14:16.315Z,19.33
2023-05-03T03:15:16.311Z,19.33
2023-05-03T03:16:16.322Z,19.31
2023-05-03T03:17:16.321Z,19.33
2023-05-03T03:18:17.752Z,19.33
2023-05-03T03:19:16.302Z,19.33
2023-05-03T03:20:16.281Z,19.34
2023-05-03T03:21:16.247Z,19.33
2023-05-03T03:22:16.236Z,19.33
2023-05-03T03:23:16.232Z,19.33
2023-05-03T03:24:16.249Z,19.33
2023-05-03T03:25:16.212Z,19.34
2023-05-03T03:26:16.208Z,19.33
2023-05-03T03:27:16.205Z,19.34
2023-05-03T03:28:16.173Z,19.34
2023-05-03T03:29:16.195Z,19.33
2023-05-03T03:30:16.184Z,19.34
2023-05-03T03:31:16.219Z,19.34
2023-05-03T03:32:16.155Z,19.34
2023-05-03T03:33:16.287Z,19.33
2023-05-03T03:34:16.098Z,19.34
2023-05-03T03:35:16.125Z,19.34
2023-05-03T03:36:16.094Z,19.34
2023-05-03T03:37:16.090Z,19.34
2023-05-03T03:38:16.075Z,19.33
2023-05-03T03:39:16.106Z,19.34
2023-05-03T03:40:16.048Z,19.34
2023-05-03T03:41:16.062Z,19.34
2023-05-03T03:42:16.890Z,19.36
2023-05-03T03:43:16.068Z,19.36
2023-05-03T03:44:16.014Z,19.37
2023-05-03T03:45:16.010Z,19.36
2023-05-03T03:46:16.051Z,19.36
2023-05-03T03:47:16.026Z,19.37
2023-05-03T03:48:15.976Z,19.37
2023-05-03T03:49:15.940Z,19.37
2023-05-03T03:50:15.936Z,19.39
2023-05-03T03:51:15.932Z,19.39
2023-05-03T03:52:15.921Z,19.39
2023-05-03T03:53:15.932Z,19.40
2023-05-03T03:54:15.885Z,19.40
2023-05-03T03:55:15.874Z,19.40
2023-05-03T03:56:15.893Z,19.41
2023-05-03T03:57:15.986Z,19.41
2023-05-03T03:58:15.853Z,19.44
2023-05-03T03:59:15.842Z,19.44
2023-05-03T04:00:15.847Z,19.44
2023-05-03T04:01:15.872Z,19.45
2023-05-03T04:02:15.834Z,19.47
2023-05-03T04:03:15.855Z,19.47
2023-05-03T04:04:15.875Z,19.47
2023-05-03T04:05:15.775Z,19.47
2023-05-03T04:06:15.865Z,19.48
2023-05-03T04:07:15.756Z,19.49
2023-05-03T04:08:15.734Z,19.49
2023-05-03T04:09:15.718Z,19.48
2023-05-03T04:10:15.724Z,19.48
2023-05-03T04:11:15.723Z,19.49
2023-05-03T04:12:15.688Z,19.48
2023-05-03T04:13:15.695Z,19.49
2023-05-03T04:14:15.667Z,19.49
2023-05-03T04:15:15.678Z,19.48
2023-05-03T04:16:15.690Z,19.52
2023-05-03T04:17:15.699Z,19.51
2023-05-03T04:18:15.637Z,19.51
2023-05-03T04:19:15.626Z,19.51
2023-05-03T04:20:15.628Z,19.51
2023-05-03T04:21:15.602Z,19.52
2023-05-03T04:22:15.608Z,19.52
2023-05-03T04:23:15.575Z,19.52
2023-05-03T04:24:15.574Z,19.54
2023-05-03T04:25:15.555Z,19.54
2023-05-03T04:26:30.166Z,19.54
2023-05-03T04:27:16.525Z,19.54
2023-05-03T04:28:15.542Z,19.54
2023-05-03T04:29:15.521Z,19.52
2023-05-03T04:30:15.592Z,19.54
2023-05-03T04:31:15.513Z,19.52
2023-05-03T04:32:15.485Z,19.52
2023-05-03T04:33:15.467Z,19.51
2023-05-03T04:34:15.444Z,19.52
2023-05-03T04:35:15.448Z,19.52
2023-05-03T04:36:15.437Z,19.52
2023-05-03T04:37:15.416Z,19.51
2023-05-03T04:38:15.419Z,19.52
2023-05-03T04:39:15.404Z,19.52
2023-05-03T04:40:15.402Z,19.51
2023-05-03T04:41:16.226Z,19.52
2023-05-03T04:42:15.405Z,19.52
2023-05-03T04:43:15.337Z,19.52
2023-05-03T04:44:15.335Z,19.52
2023-05-03T04:45:15.330Z,19.52
2023-05-03T04:46:15.377Z,19.51
2023-05-03T04:47:15.342Z,19.51
2023-05-03T04:48:15.358Z,19.52
2023-05-03T04:49:15.295Z,19.49
2023-05-03T04:50:15.290Z,19.51
2023-05-03T04:51:15.278Z,19.51
2023-05-03T04:52:15.267Z,19.51
2023-05-03T04:53:15.241Z,19.51
2023-05-03T04:54:15.260Z,19.49
2023-05-03T04:55:15.234Z,19.51
2023-05-03T04:56:15.215Z,19.51
2023-05-03T04:57:15.205Z,19.51
2023-05-03T04:58:15.213Z,19.51
2023-05-03T04:59:15.171Z,19.49
2023-05-03T05:00:15.188Z,19.51
2023-05-03T05:01:15.201Z,19.49
2023-05-03T05:02:15.161Z,19.49
2023-05-03T05:03:15.201Z,19.51
2023-05-03T05:04:15.146Z,19.49
2023-05-03T05:05:15.103Z,19.52
2023-05-03T05:06:15.136Z,19.49
2023-05-03T05:07:15.122Z,19.49
2023-05-03T05:08:15.102Z,19.49
2023-05-03T05:09:15.078Z,19.51
2023-05-03T05:10:15.063Z,19.49
2023-05-03T05:11:15.072Z,19.51
2023-05-03T05:12:15.034Z,19.51
2023-05-03T05:13:15.041Z,19.49
2023-05-03T05:14:15.004Z,19.48
2023-05-03T05:15:15.057Z,19.49
2023-05-03T05:16:15.034Z,19.49
2023-05-03T05:17:15.044Z,19.48
2023-05-03T05:18:15.006Z,19.48
2023-05-03T05:19:14.968Z,19.49
2023-05-03T05:20:16.827Z,19.49
2023-05-03T05:21:15.036Z,19.49
2023-05-03T05:22:14.957Z,19.51
2023-05-03T05:23:14.924Z,19.49
2023-05-03T05:24:14.940Z,19.49
2023-05-03T05:25:14.881Z,19.49
2023-05-03T05:26:14.877Z,19.49
2023-05-03T05:27:14.940Z,19.51
2023-05-03T05:28:14.868Z,19.49
2023-05-03T05:29:14.833Z,19.51
2023-05-03T05:30:14.857Z,19.51
2023-05-03T05:31:14.878Z,19.51
2023-05-03T05:32:14.824Z,19.52
2023-05-03T05:33:16.659Z,19.51
2023-05-03T05:34:14.804Z,19.52
2023-05-03T05:35:14.785Z,19.52
2023-05-03T05:36:14.784Z,19.52
2023-05-03T05:37:14.755Z,19.52
2023-05-03T05:38:14.749Z,19.55
2023-05-03T05:39:14.747Z,19.55
2023-05-03T05:40:14.726Z,19.55
2023-05-03T05:41:14.730Z,19.56
2023-05-03T05:42:14.701Z,19.56
2023-05-03T05:43:14.709Z,19.56
2023-05-03T05:44:14.693Z,19.58
2023-05-03T05:45:14.685Z,19.58
2023-05-03T05:46:14.681Z,19.59
2023-05-03T05:47:14.791Z,19.59
2023-05-03T05:48:14.706Z,19.62
2023-05-03T05:49:14.622Z,19.59
2023-05-03T05:50:18.031Z,19.62
2023-05-03T05:51:14.632Z,19.62
2023-05-03T05:52:14.612Z,19.62
2023-05-03T05:53:14.585Z,19.62
2023-05-03T05:54:14.603Z,19.62
2023-05-03T05:55:14.568Z,19.63
2023-05-03T05:56:14.562Z,19.62
2023-05-03T05:57:14.571Z,19.63
2023-05-03T05:58:14.532Z,19.62
2023-05-03T05:59:14.546Z,19.63
2023-05-03T06:00:14.722Z,19.62
2023-05-03T06:01:14.511Z,19.63
2023-05-03T06:02:14.557Z,19.62
2023-05-03T06:03:14.579Z,19.63
2023-05-03T06:04:14.483Z,19.62
2023-05-03T06:05:14.534Z,19.59
2023-05-03T06:06:14.484Z,19.63
2023-05-03T06:07:14.451Z,19.62
2023-05-03T06:08:14.424Z,19.62
2023-05-03T06:09:24.181Z,19.62
2023-05-03T06:10:15.420Z,19.62
2023-05-03T06:11:14.441Z,19.62
2023-05-03T06:12:14.397Z,19.62
2023-05-03T06:13:14.378Z,19.62
2023-05-03T06:14:14.366Z,19.62
2023-05-03T06:15:14.358Z,19.62
2023-05-03T06:16:14.380Z,19.59
2023-05-03T06:17:14.398Z,19.62
2023-05-03T06:18:14.317Z,19.59
2023-05-03T06:19:14.341Z,19.59
2023-05-03T06:20:14.308Z,19.59
2023-05-03T06:21:14.282Z,19.59
2023-05-03T06:22:14.283Z,19.59
2023-05-03T06:23:14.286Z,19.59
2023-05-03T06:24:14.250Z,19.58
2023-05-03T06:25:16.224Z,19.62
2023-05-03T06:26:14.266Z,19.59
2023-05-03T06:27:14.250Z,19.59
2023-05-03T06:28:14.205Z,19.59
2023-05-03T06:29:14.197Z,19.59
2023-05-03T06:30:14.214Z,19.59
2023-05-03T06:31:14.247Z,19.62
2023-05-03T06:32:14.224Z,19.62
2023-05-03T06:33:14.166Z,19.62
2023-05-03T06:34:14.150Z,19.62
2023-05-03T06:35:14.141Z,19.59
2023-05-03T06:36:14.131Z,19.59
2023-05-03T06:37:14.176Z,19.59
2023-05-03T06:38:14.105Z,19.58
2023-05-03T06:39:14.099Z,19.58
2023-05-03T06:40:14.095Z,19.58
2023-05-03T06:41:14.089Z,19.58
2023-05-03T06:42:14.076Z,19.59
2023-05-03T06:43:14.046Z,19.59
2023-05-03T06:44:14.136Z,19.58
2023-05-03T06:45:14.047Z,19.59
2023-05-03T06:46:14.193Z,19.58
2023-05-03T06:47:13.998Z,19.58
2023-05-03T06:48:14.094Z,19.58
2023-05-03T06:49:13.988Z,19.58
2023-05-03T06:50:14.009Z,19.62
2023-05-03T06:51:13.968Z,19.59
2023-05-03T06:52:13.977Z,19.58
2023-05-03T06:53:13.946Z,19.62
2023-05-03T06:54:13.917Z,19.59
2023-05-03T06:55:13.929Z,19.59
2023-05-03T06:56:13.924Z,19.62
2023-05-03T06:57:13.888Z,19.62
2023-05-03T06:58:13.901Z,19.59
2023-05-03T06:59:13.908Z,19.59
2023-05-03T07:00:13.859Z,19.62
2023-05-03T07:01:13.912Z,19.62
2023-05-03T07:02:13.868Z,19.59
2023-05-03T07:03:13.972Z,19.62
2023-05-03T07:04:13.882Z,19.59
2023-05-03T07:05:13.834Z,19.59
2023-05-03T07:06:13.845Z,19.59
2023-05-03T07:07:13.862Z,19.59
2023-05-03T07:08:13.783Z,19.59
2023-05-03T07:09:13.749Z,19.59
2023-05-03T07:10:13.769Z,19.59
2023-05-03T07:11:13.751Z,19.62
2023-05-03T07:12:13.752Z,19.62
2023-05-03T07:13:13.715Z,19.62
2023-05-03T07:14:13.700Z,19.63
2023-05-03T07:15:13.690Z,19.63
2023-05-03T07:16:13.725Z,19.62
2023-05-03T07:17:13.677Z,19.64
2023-05-03T07:18:13.731Z,19.64
2023-05-03T07:19:13.640Z,19.64
2023-05-03T07:20:13.661Z,19.63
2023-05-03T07:21:13.691Z,19.64
2023-05-03T07:22:13.629Z,19.63
2023-05-03T07:23:13.625Z,19.63
2023-05-03T07:24:13.591Z,19.64
2023-05-03T07:25:13.624Z,19.64
2023-05-03T07:26:13.594Z,19.64
2023-05-03T07:27:13.555Z,19.66
2023-05-03T07:28:13.573Z,19.66
2023-05-03T07:29:13.554Z,19.66
2023-05-03T07:30:13.540Z,19.66
2023-05-03T07:31:13.523Z,19.67
2023-05-03T07:32:13.546Z,19.66
2023-05-03T07:33:13.643Z,19.66
2023-05-03T07:34:13.506Z,19.66
2023-05-03T07:35:13.480Z,19.66
2023-05-03T07:36:13.486Z,19.67
2023-05-03T07:37:13.445Z,19.66
2023-05-03T07:38:13.452Z,19.67
2023-05-03T07:39:13.419Z,19.69
2023-05-03T07:40:13.433Z,19.69
2023-05-03T07:41:13.408Z,19.67
2023-05-03T07:42:13.404Z,19.69
2023-05-03T07:43:13.424Z,19.70
2023-05-03T07:44:13.373Z,19.69
2023-05-03T07:45:13.349Z,19.69
2023-05-03T07:46:13.410Z,19.70
2023-05-03T07:47:13.354Z,19.71
2023-05-03T07:48:13.375Z,19.70
2023-05-03T07:49:13.328Z,19.70
2023-05-03T07:50:13.324Z,19.70
2023-05-03T07:51:13.297Z,19.69
2023-05-03T07:52:13.329Z,19.69
2023-05-03T07:53:13.287Z,19.71
2023-05-03T07:54:13.261Z,19.67
2023-05-03T07:55:13.280Z,19.67
2023-05-03T07:56:13.252Z,19.69
2023-05-03T07:57:13.229Z,19.69
2023-05-03T07:58:13.271Z,19.69
2023-05-03T07:59:13.218Z,19.69
2023-05-03T08:00:13.224Z,19.69
2023-05-03T08:01:13.191Z,19.69
2023-05-03T08:02:13.318Z,19.69
2023-05-03T08:03:13.926Z,19.70
2023-05-03T08:04:14.281Z,19.69
2023-05-03T08:05:13.264Z,19.70
2023-05-03T08:06:13.171Z,19.71
2023-05-03T08:07:13.134Z,19.70
2023-05-03T08:08:13.103Z,19.71
2023-05-03T08:09:13.132Z,19.71
2023-05-03T08:10:13.114Z,19.73
2023-05-03T08:11:13.065Z,19.71
2023-05-03T08:12:13.085Z,19.73
2023-05-03T08:13:13.064Z,19.74
2023-05-03T08:14:13.038Z,19.73
2023-05-03T08:15:13.059Z,19.74
2023-05-03T08:16:13.073Z,19.76
2023-05-03T08:17:13.020Z,19.76
2023-05-03T08:18:13.045Z,19.77
2023-05-03T08:19:12.989Z,19.77
2023-05-03T08:20:13.015Z,19.77
2023-05-03T08:21:13.011Z,19.77
2023-05-03T08:22:12.982Z,19.79
2023-05-03T08:23:12.952Z,19.79
2023-05-03T08:24:14.838Z,19.81
2023-05-03T08:25:12.931Z,19.81
2023-05-03T08:26:12.999Z,19.81
2023-05-03T08:27:12.916Z,19.82
2023-05-03T08:28:12.952Z,19.82
2023-05-03T08:29:12.922Z,19.82
2023-05-03T08:30:12.883Z,19.84
2023-05-03T08:31:13.146Z,19.84
2023-05-03T08:32:12.846Z,19.85
2023-05-03T08:33:12.874Z,19.86
2023-05-03T08:34:12.832Z,19.86
2023-05-03T08:35:12.832Z,19.86
2023-05-03T08:36:12.863Z,19.88
2023-05-03T08:37:12.866Z,19.86
2023-05-03T08:38:12.784Z,19.86
2023-05-03T08:39:12.792Z,19.86
2023-05-03T08:40:12.756Z,19.86
2023-05-03T08:41:12.770Z,19.85
2023-05-03T08:42:12.824Z,19.84
2023-05-03T08:43:12.956Z,19.85
2023-05-03T08:44:12.921Z,19.84
2023-05-03T08:45:12.743Z,19.82
2023-05-03T08:46:13.029Z,19.84
2023-05-03T08:47:12.935Z,19.84
2023-05-03T08:48:13.436Z,19.84
2023-05-03T08:49:12.777Z,19.82
2023-05-03T08:50:12.648Z,19.82
2023-05-03T08:51:12.731Z,19.81
2023-05-03T08:52:12.632Z,19.81
2023-05-03T08:53:12.691Z,19.81
2023-05-03T08:54:12.719Z,19.79
2023-05-03T08:55:12.632Z,19.79
2023-05-03T08:56:12.623Z,19.79
2023-05-03T08:57:12.595Z,19.79
2023-05-03T08:58:12.949Z,19.76
2023-05-03T08:59:12.875Z,19.76
2023-05-03T09:00:12.885Z,19.74
2023-05-03T09:01:12.571Z,19.73
2023-05-03T09:02:12.569Z,19.73
2023-05-03T09:03:12.721Z,19.71
2023-05-03T09:04:13.361Z,19.71
2023-05-03T09:05:12.546Z,19.71
2023-05-03T09:06:12.549Z,19.71
2023-05-03T09:07:12.495Z,19.71
2023-05-03T09:08:12.465Z,19.71
2023-05-03T09:09:12.437Z,19.71
2023-05-03T09:10:12.463Z,19.71
2023-05-03T09:11:12.451Z,19.71
2023-05-03T09:12:12.421Z,19.73
2023-05-03T09:13:12.415Z,19.73
2023-05-03T09:14:12.406Z,19.74
2023-05-03T09:15:12.375Z,19.73
2023-05-03T09:16:12.388Z,19.73
2023-05-03T09:17:12.351Z,19.74
2023-05-03T09:18:12.449Z,19.74
2023-05-03T09:19:12.337Z,19.73
2023-05-03T09:20:12.324Z,19.74
2023-05-03T09:21:12.437Z,19.76
2023-05-03T09:22:12.316Z,19.76
2023-05-03T09:23:12.299Z,19.77
2023-05-03T09:24:12.325Z,19.79
2023-05-03T09:25:12.265Z,19.81
2023-05-03T09:26:12.259Z,19.79
2023-05-03T09:27:12.244Z,19.79
2023-05-03T09:28:12.235Z,19.79
2023-05-03T09:29:12.258Z,19.79
2023-05-03T09:30:12.225Z,19.81
2023-05-03T09:31:13.473Z,19.81
2023-05-03T09:32:12.350Z,19.81
2023-05-03T09:33:12.171Z,19.82
2023-05-03T09:34:12.167Z,19.84
2023-05-03T09:35:12.149Z,19.84
2023-05-03T09:36:12.133Z,19.85
2023-05-03T09:37:12.139Z,19.84
2023-05-03T09:38:12.126Z,19.84
2023-05-03T09:39:12.124Z,19.85
2023-05-03T09:40:12.102Z,19.85
2023-05-03T09:41:12.098Z,19.85
2023-05-03T09:42:12.077Z,19.84
2023-05-03T09:43:12.080Z,19.85
2023-05-03T09:44:12.056Z,19.85
2023-05-03T09:45:12.057Z,19.86
2023-05-03T09:46:12.066Z,19.86
2023-05-03T09:47:12.035Z,19.86
2023-05-03T09:48:12.075Z,19.86
2023-05-03T09:49:12.007Z,19.86
2023-05-03T09:50:12.001Z,19.86
2023-05-03T09:51:11.987Z,19.86
2023-05-03T09:52:11.970Z,19.85
2023-05-03T09:53:11.995Z,19.86
2023-05-03T09:54:11.985Z,19.86
2023-05-03T09:55:11.966Z,19.88
2023-05-03T09:56:11.932Z,19.86
2023-05-03T09:57:11.926Z,19.88
2023-05-03T09:58:11.926Z,19.89
2023-05-03T09:59:11.904Z,19.88
2023-05-03T10:00:11.865Z,19.89
2023-05-03T10:01:11.983Z,19.89
2023-05-03T10:02:11.876Z,19.91
2023-05-03T10:03:11.871Z,19.91
2023-05-03T10:04:11.878Z,19.91
2023-05-03T10:05:11.833Z,19.89
2023-05-03T10:06:11.868Z,19.89
2023-05-03T10:07:12.563Z,19.89
2023-05-03T10:08:11.777Z,19.88
2023-05-03T10:09:11.813Z,19.89
2023-05-03T10:10:11.766Z,19.88
2023-05-03T10:11:11.771Z,19.88
2023-05-03T10:12:11.738Z,19.88
2023-05-03T10:13:12.440Z,19.86
2023-05-03T10:14:11.714Z,19.86
2023-05-03T10:15:11.735Z,19.86
2023-05-03T10:16:11.837Z,19.85
2023-05-03T10:17:11.725Z,19.85
2023-05-03T10:18:11.718Z,19.85
2023-05-03T10:19:13.605Z,19.82
2023-05-03T10:20:11.663Z,19.82
2023-05-03T10:21:11.643Z,19.82
2023-05-03T10:22:11.659Z,19.82
2023-05-03T10:23:11.641Z,19.82
2023-05-03T10:24:11.598Z,19.84
2023-05-03T10:25:13.516Z,19.82
2023-05-03T10:26:11.618Z,19.84
2023-05-03T10:27:11.586Z,19.82
2023-05-03T10:28:11.581Z,19.84
2023-05-03T10:29:11.550Z,19.84
2023-05-03T10:30:11.545Z,19.85
2023-05-03T10:31:11.603Z,19.85
2023-05-03T10:32:11.514Z,19.88
2023-05-03T10:33:11.594Z,19.86
2023-05-03T10:34:11.539Z,19.86
2023-05-03T10:35:11.489Z,19.88
2023-05-03T10:36:11.456Z,19.88
2023-05-03T10:37:11.505Z,19.88
2023-05-03T10:38:11.440Z,19.89
2023-05-03T10:39:11.437Z,19.89
2023-05-03T10:40:11.514Z,19.89
2023-05-03T10:41:11.428Z,19.89
2023-05-03T10:42:11.408Z,19.91
2023-05-03T10:43:11.422Z,19.91
2023-05-03T10:44:11.399Z,19.92
2023-05-03T10:45:11.373Z,19.92
2023-05-03T10:46:11.385Z,19.92
2023-05-03T10:47:11.353Z,19.92
2023-05-03T10:48:11.471Z,19.92
2023-05-03T10:49:11.326Z,19.92
2023-05-03T10:50:11.309Z,19.92
2023-05-03T10:51:11.321Z,19.92
2023-05-03T10:52:11.296Z,19.92
2023-05-03T10:53:11.285Z,19.92
2023-05-03T10:54:11.268Z,19.94
2023-05-03T10:55:11.302Z,19.94
2023-05-03T10:56:11.263Z,19.94
2023-05-03T10:57:11.224Z,19.92
2023-05-03T10:58:11.232Z,19.94
2023-05-03T10:59:11.222Z,19.94
2023-05-03T11:00:11.211Z,19.92
2023-05-03T11:01:11.294Z,19.94
2023-05-03T11:02:11.185Z,19.92
2023-05-03T11:03:11.211Z,19.92
2023-05-03T11:04:11.223Z,19.92
2023-05-03T11:05:11.172Z,19.92
2023-05-03T11:06:11.207Z,19.94
2023-05-03T11:07:11.167Z,19.92
2023-05-03T11:08:11.149Z,19.94
2023-05-03T11:09:11.104Z,19.95
2023-05-03T11:10:11.080Z,19.94
2023-05-03T11:11:11.077Z,19.96
2023-05-03T11:12:11.057Z,19.95
2023-05-03T11:13:11.086Z,19.95
2023-05-03T11:14:11.053Z,19.99
2023-05-03T11:15:11.066Z,20.00
2023-05-03T11:16:11.180Z,20.00
2023-05-03T11:17:11.029Z,20.03
2023-05-03T11:18:11.075Z,20.03
2023-05-03T11:19:11.008Z,20.03
2023-05-03T11:20:10.982Z,20.04
2023-05-03T11:21:10.955Z,20.06
2023-05-03T11:22:10.940Z,20.06
2023-05-03T11:23:10.941Z,20.07
2023-05-03T11:24:10.942Z,20.07
2023-05-03T11:25:10.942Z,20.09
2023-05-03T11:26:10.897Z,20.10
2023-05-03T11:27:10.903Z,20.09
2023-05-03T11:28:11.009Z,20.09
2023-05-03T11:29:10.886Z,20.10
2023-05-03T11:30:11.020Z,20.13
2023-05-03T11:31:10.926Z,20.13
2023-05-03T11:32:10.986Z,20.13
2023-05-03T11:33:10.859Z,20.14
2023-05-03T11:34:10.839Z,20.13
2023-05-03T11:35:10.838Z,20.14
2023-05-03T11:36:10.800Z,20.14
2023-05-03T11:37:10.790Z,20.14
2023-05-03T11:38:10.761Z,20.14
2023-05-03T11:39:10.757Z,20.13
2023-05-03T11:40:10.762Z,20.14
2023-05-03T11:41:10.783Z,20.13
2023-05-03T11:42:10.751Z,20.13
2023-05-03T11:43:10.741Z,20.13
2023-05-03T11:44:17.262Z,20.13
2023-05-03T11:45:11.690Z,20.13
2023-05-03T11:46:10.818Z,20.13
2023-05-03T11:47:10.838Z,20.13
2023-05-03T11:48:10.895Z,20.13
2023-05-03T11:49:10.727Z,20.14
2023-05-03T11:50:10.657Z,20.14
2023-05-03T11:51:10.661Z,20.16
2023-05-03T11:52:10.733Z,20.14
2023-05-03T11:53:10.625Z,20.19
2023-05-03T11:54:24.226Z,20.18
2023-05-03T11:55:11.790Z,20.18
2023-05-03T11:56:10.587Z,20.21
2023-05-03T11:57:10.562Z,20.19
2023-05-03T11:58:10.599Z,20.21
2023-05-03T11:59:10.554Z,20.22
2023-05-03T12:00:10.537Z,20.24
2023-05-03T12:01:10.560Z,20.22
2023-05-03T12:02:10.668Z,20.22
2023-05-03T12:03:10.729Z,20.22
2023-05-03T12:04:10.646Z,20.24
2023-05-03T12:05:10.983Z,20.22
2023-05-03T12:06:11.345Z,20.22
2023-05-03T12:07:10.989Z,20.25
2023-05-03T12:08:11.428Z,20.24
2023-05-03T12:09:10.707Z,20.24
2023-05-03T12:10:17.072Z,20.25
2023-05-03T12:11:13.216Z,20.25
2023-05-03T12:12:13.800Z,20.24
2023-05-03T12:13:12.668Z,20.25
2023-05-03T12:14:10.874Z,20.25
2023-05-03T12:15:11.674Z,20.26
2023-05-03T12:16:13.609Z,20.26
2023-05-03T12:17:11.479Z,20.26
2023-05-03T12:18:10.707Z,20.26
2023-05-03T12:19:10.627Z,20.26
2023-05-03T12:20:33.647Z,20.28
2023-05-03T12:22:25.234Z,20.28
2023-05-03T12:23:11.881Z,20.26
2023-05-03T12:24:10.920Z,20.28
2023-05-03T12:25:10.620Z,20.26
2023-05-03T12:26:10.473Z,20.28
2023-05-03T12:27:10.271Z,20.28
2023-05-03T12:30:10.541Z,20.26
2023-05-03T12:31:12.937Z,20.26
2023-05-03T12:32:12.098Z,20.26
2023-05-03T12:33:10.720Z,20.25
2023-05-03T12:34:31.793Z,20.25
2023-05-03T12:35:14.295Z,20.25
2023-05-03T12:36:10.673Z,20.25
2023-05-03T12:37:11.869Z,20.26
2023-05-03T12:38:10.711Z,20.26
2023-05-03T12:39:10.564Z,20.26
2023-05-03T12:40:31.862Z,20.26
2023-05-03T12:41:11.151Z,20.26
2023-05-03T12:42:10.213Z,20.25
2023-05-03T12:43:10.240Z,20.26
2023-05-03T12:44:10.939Z,20.25
2023-05-03T12:45:12.474Z,20.24
2023-05-03T12:47:11.499Z,20.24
2023-05-03T12:48:10.183Z,20.24
2023-05-03T12:49:14.396Z,20.24
2023-05-03T12:50:12.417Z,20.24
2023-05-03T12:53:10.552Z,20.22
2023-05-03T12:54:10.573Z,20.21
2023-05-03T12:55:11.547Z,20.21
2023-05-03T12:56:13.362Z,20.19
2023-05-03T12:57:14.634Z,20.21
2023-05-03T13:00:14.374Z,20.19